SCCY/GXQ METAR and TAF weather

Enter ICAO airport designator
Station Type Date Time Source
SCCY METAR 2019/02/18 04:00 UTC NOAA

SCCY 180400Z AUTO 04005KT 320V100 9999 BKN036 OVC043 16/10 Q1000


Station Type Date Time Source
SCCY Decoded METAR 2019/02/18 04:00 UTC NOAA

Coyhaique, Chile (SCCY) 45-35S 072-07W
Feb 17, 2019 - 11:00 PM EST / 2019.02.18 0400 UTC
Wind: from the NE (040 degrees) at 6 MPH (5 KT) (direction variable):0
Visibility: greater than 7 mile(s):0
Sky conditions: overcast
Temperature: 60 F (16 C)
Dew Point: 50 F (10 C)
Relative Humidity: 67%
Pressure (altimeter): 29.53 in. Hg (1000 hPa)
ob: SCCY 180400Z AUTO 04005KT 320V100 9999 BKN036 OVC043 16/10 Q1000
cycle: 4

Station Type Date Time Source
SCCY TAF 2019/02/17 12:33 UTC NOAA

TAF SCCY 171001Z 1712/1724 VRB04KT 9999 BKN025 TN11/1712Z TX18/1720Z
BECMG 1716/1718 29007KT BKN040


Example: see airport list